Terminal Aerodrome Forecast
Issued by NWS Sterling, VA

Current Version | Previous Version | Graphics & Text | Print | Product List | Glossary On
Versions: 1 2 3 4 5 6 7 8 9 10 11 12 13 14 15 16 17 18 19 20 21 22 23 24
000
FTUS41 KLWX 291500 AAB
TAFIAD
TAF AMD
KIAD 291516Z 2915/3018 33014G21KT P6SM BKN080 BKN120 BKN250
     FM291600 32009KT P6SM -SHRA OVC040
     FM292100 32006KT P6SM OVC100
     FM300100 30005KT P6SM SCT250
     FM301500 33009KT P6SM SCT050=

USA.gov is the U.S. government's official web portal to all federal, state and local government web resources and services.